Flag for Vietnam

Past Weather in 20°15'14.0"N, 105°58'29.9"E, Vietnam — Yesterday and Last 2 Weeks

Currently: 70 °F. Clear. (Weather station: Ha Noi Airport, Vietnam). See more current weather

Past Weather in 20°15'14.0"N, 105°58'29.9"E — Graph

°F

20°15'14.0"N, 105°58'29.9"E Temperature Yesterday

Maximum temperature yesterday: 81 °F (at 1:00 pm)
Minimum temperature yesterday: 61 °F (at 4:30 am)
Average temperature yesterday: 72 °F

High & Low Weather Summary for the Past Weeks

 TemperatureHumidityPressure
High84 °F (Nov 26, 3:00 pm)100% (Nov 29, 5:00 am)30.24 "Hg (Nov 29, 5:00 am)
Low59 °F (Dec 7, 5:00 am)37% (Nov 28, 2:30 pm)29.86 "Hg (Dec 8, 3:00 pm)
Average72 °F75%30.07 "Hg
* Reported Nov 23 10:00 pm — Dec 8 10:30 pm, 20°15'14.0"N, 105°58'29.9"E. Weather by CustomWeather, © 2023

Note: Actual official high and low records may vary slightly from our data, if they occured in-between our weather recording intervals... More about our weather records

20°15'14.0"N, 105°58'29.9"E Weather History for the Previous 24 Hours

Scroll right to see more
 ConditionsComfort  
Time TempWeatherWind HumidityBarometerVisibility
10:30 pm
Fri, Dec 8
70 °FClear.8 mph83%29.95 "Hg10 mi
10:00 pm72 °FClear.9 mph78%29.95 "Hg10 mi
9:30 pm72 °FClear.9 mph78%29.95 "Hg10 mi
8:00 pm73 °FClear.9 mph74%29.95 "Hg10 mi
7:30 pm73 °FClear.10 mph69%29.92 "Hg10 mi
7:00 pm75 °FClear.10 mph65%29.92 "Hg5 mi
6:30 pm77 °FClear.5 mph54%29.89 "Hg6 mi
6:00 pm77 °FPassing clouds.6 mph54%29.89 "HgN/A
5:30 pm77 °FClear.5 mph51%29.89 "Hg10 mi
5:00 pm79 °FPassing clouds.5 mph48%29.89 "HgN/A
4:30 pm79 °FPassing clouds.6 mph48%29.89 "HgN/A
4:00 pm81 °FSunny.3 mph45%29.89 "Hg10 mi
3:30 pm81 °FPassing clouds.6 mph45%29.86 "HgN/A
3:00 pm81 °FPassing clouds.5 mph45%29.86 "HgN/A
2:30 pm81 °FSunny.7 mph45%29.89 "Hg10 mi
2:00 pm81 °FPassing clouds.6 mph45%29.89 "HgN/A
1:30 pm79 °FPassing clouds.6 mph48%29.89 "HgN/A
1:00 pm81 °FPassing clouds.5 mph45%29.92 "HgN/A
12:30 pm79 °FPassing clouds.3 mph48%29.95 "HgN/A
12:00 pm77 °FSunny.3 mph51%29.98 "Hg10 mi
11:30 am77 °FPassing clouds.7 mph51%29.98 "HgN/A
11:00 am75 °FClear.7 mph57%30.01 "Hg4 mi
10:30 am73 °FClear.5 mph61%30.01 "Hg4 mi
10:00 am73 °FClear.7 mph61%30.04 "Hg5 mi
9:30 am72 °FClear.6 mph65%30.04 "Hg4 mi
9:00 am70 °FHaze.6 mph69%30.04 "Hg3 mi
8:30 am66 °FFog.7 mph78%30.04 "Hg3 mi
8:00 am66 °FFog.7 mph78%30.01 "Hg3 mi
6:30 am63 °FFog.6 mph88%29.98 "Hg2 mi
6:00 am61 °FFog.6 mph94%29.98 "Hg3 mi
5:30 am63 °FFog.6 mph88%29.98 "Hg3 mi
5:00 am61 °FFog.5 mph94%29.98 "Hg3 mi
4:30 am61 °FFog.3 mph88%29.98 "Hg3 mi
4:00 am63 °FClear.5 mph83%29.98 "Hg4 mi
3:30 am64 °FClear.3 mph78%30.01 "Hg4 mi
3:00 am63 °FClear.5 mph83%30.01 "Hg4 mi
2:30 am64 °FClear.3 mph78%30.01 "Hg4 mi
2:00 am64 °FClear.2 mph78%30.01 "Hg4 mi
1:30 am64 °FClear.3 mph78%30.01 "Hg4 mi
1:00 am66 °FClear.6 mph73%30.04 "Hg6 mi
12:30 am68 °FClear.5 mph69%30.04 "Hg5 mi
12:00 am64 °FClear.5 mph78%30.04 "Hg6 mi
Weather by CustomWeather, © 2023

See weather overview